createdAt,value
2022-11-14T00:02:32.522Z,5.13
2022-11-14T00:05:18.158Z,5.07
2022-11-14T00:08:03.156Z,5.30
2022-11-14T00:10:50.229Z,4.80
2022-11-14T00:13:35.801Z,8.50
2022-11-14T00:16:20.908Z,5.77
2022-11-14T00:19:06.122Z,5.37
2022-11-14T00:21:53.417Z,5.30
2022-11-14T00:24:39.769Z,5.60
2022-11-14T00:27:25.810Z,4.87
2022-11-14T00:30:11.300Z,5.10
2022-11-14T00:32:56.489Z,4.97
2022-11-14T00:35:41.817Z,5.67
2022-11-14T00:38:27.635Z,5.20
2022-11-14T00:41:13.186Z,4.93
2022-11-14T00:43:58.464Z,5.07
2022-11-14T00:46:43.888Z,5.30
2022-11-14T00:49:29.147Z,5.30
2022-11-14T00:52:15.728Z,4.97
2022-11-14T00:55:00.994Z,5.27
2022-11-14T00:57:46.247Z,4.50
2022-11-14T01:00:31.794Z,5.70
2022-11-14T01:03:17.233Z,4.20
2022-11-14T01:06:09.463Z,5.10
2022-11-14T01:08:55.587Z,4.70
2022-11-14T01:11:42.221Z,5.37
2022-11-14T01:14:27.285Z,5.10
2022-11-14T01:17:12.745Z,4.70
2022-11-14T01:19:57.925Z,4.63
2022-11-14T01:22:43.089Z,4.70
2022-11-14T01:25:28.470Z,4.83
2022-11-14T01:28:17.560Z,4.70
2022-11-14T01:31:24.052Z,4.80
2022-11-14T01:34:10.531Z,4.83
2022-11-14T01:36:56.318Z,4.80
2022-11-14T01:39:41.652Z,5.30
2022-11-14T01:42:27.673Z,5.20
2022-11-14T01:45:47.215Z,4.60
2022-11-14T01:48:44.472Z,4.47
2022-11-14T01:51:32.573Z,5.27
2022-11-14T01:54:25.567Z,5.73
2022-11-14T01:57:13.898Z,5.20
2022-11-14T02:00:02.969Z,5.13
2022-11-14T02:02:48.692Z,5.10
2022-11-14T02:05:35.007Z,5.10
2022-11-14T02:08:21.298Z,5.40
2022-11-14T02:11:06.548Z,5.20
2022-11-14T02:13:51.857Z,4.80
2022-11-14T02:16:40.937Z,5.00
2022-11-14T02:19:26.484Z,4.70
2022-11-14T02:22:12.266Z,4.57
2022-11-14T02:24:57.632Z,4.63
2022-11-14T02:27:43.677Z,5.30
2022-11-14T02:30:28.984Z,4.80
2022-11-14T02:33:14.637Z,4.97
2022-11-14T02:35:59.730Z,4.90
2022-11-14T02:38:45.162Z,5.20
2022-11-14T02:41:30.309Z,5.13
2022-11-14T02:44:15.722Z,4.70
2022-11-14T02:47:01.089Z,5.50
2022-11-14T02:49:46.329Z,4.60
2022-11-14T02:52:31.944Z,3.90
2022-11-14T02:55:17.310Z,4.03
2022-11-14T02:58:02.470Z,4.13
2022-11-14T03:01:13.590Z,4.00
2022-11-14T03:03:53.168Z,3.97
2022-11-14T03:06:38.575Z,4.10
2022-11-14T03:09:24.781Z,4.00
2022-11-14T03:12:11.355Z,3.90
2022-11-14T03:14:56.451Z,3.93
2022-11-14T03:17:42.233Z,4.43
2022-11-14T03:20:27.658Z,4.20
2022-11-14T03:23:12.906Z,5.70
2022-11-14T03:26:02.702Z,4.10
2022-11-14T03:28:47.716Z,3.90
2022-11-14T03:31:33.130Z,3.60
2022-11-14T03:34:18.485Z,3.73
2022-11-14T03:37:03.765Z,3.93
2022-11-14T03:39:49.164Z,3.77
2022-11-14T03:42:35.328Z,4.47
2022-11-14T03:45:20.451Z,4.30
2022-11-14T03:48:06.664Z,4.20
2022-11-14T03:50:52.051Z,3.60
2022-11-14T03:53:37.696Z,3.67
2022-11-14T03:56:23.388Z,4.00
2022-11-14T03:59:08.664Z,3.83
2022-11-14T04:01:53.888Z,4.10
2022-11-14T04:04:39.200Z,4.20
2022-11-14T04:07:25.516Z,3.70
2022-11-14T04:10:12.029Z,4.03
2022-11-14T04:12:57.253Z,3.83
2022-11-14T04:15:43.013Z,3.60
2022-11-14T04:18:28.841Z,3.23
2022-11-14T04:21:14.730Z,3.40
2022-11-14T04:23:59.715Z,4.03
2022-11-14T04:26:45.054Z,3.30
2022-11-14T04:29:30.343Z,3.50
2022-11-14T04:32:15.664Z,3.70
2022-11-14T04:35:01.000Z,3.60
2022-11-14T04:37:46.288Z,3.47
2022-11-14T04:40:31.776Z,3.80
2022-11-14T04:43:17.160Z,3.20
2022-11-14T04:46:02.225Z,3.60
2022-11-14T04:48:47.525Z,3.57
2022-11-14T04:51:32.955Z,3.10
2022-11-14T04:54:18.119Z,3.53
2022-11-14T04:57:03.576Z,3.40
2022-11-14T04:59:48.963Z,3.20
2022-11-14T05:02:34.217Z,3.23
2022-11-14T05:05:19.596Z,3.30
2022-11-14T05:08:05.124Z,3.60
2022-11-14T05:10:50.188Z,3.27
2022-11-14T05:13:35.511Z,3.60
2022-11-14T05:16:20.740Z,3.60
2022-11-14T05:19:06.139Z,3.93
2022-11-14T05:21:51.310Z,4.13
2022-11-14T05:24:36.599Z,4.13
2022-11-14T05:27:22.081Z,3.53
2022-11-14T05:30:08.114Z,3.93
2022-11-14T05:32:53.481Z,3.67
2022-11-14T05:35:38.794Z,3.23
2022-11-14T05:38:24.213Z,3.30
2022-11-14T05:41:12.973Z,3.70
2022-11-14T05:43:58.944Z,3.30
2022-11-14T05:46:44.343Z,3.37
2022-11-14T05:49:29.692Z,3.47
2022-11-14T05:52:15.282Z,3.33
2022-11-14T05:55:00.412Z,3.30
2022-11-14T05:57:45.791Z,3.50
2022-11-14T06:00:34.689Z,3.07
2022-11-14T06:03:25.184Z,3.20
2022-11-14T06:06:16.594Z,3.50
2022-11-14T06:09:02.130Z,3.30
2022-11-14T06:11:47.342Z,3.00
2022-11-14T06:14:32.879Z,3.27
2022-11-14T06:17:18.011Z,3.00
2022-11-14T06:20:03.904Z,3.57
2022-11-14T06:22:49.068Z,3.30
2022-11-14T06:25:34.399Z,3.40
2022-11-14T06:28:19.689Z,3.20
2022-11-14T06:31:05.357Z,3.70
2022-11-14T06:33:50.801Z,2.67
2022-11-14T06:36:35.828Z,2.63
2022-11-14T06:39:21.271Z,3.10
2022-11-14T06:42:06.676Z,3.23
2022-11-14T06:44:51.857Z,2.80
2022-11-14T06:47:37.327Z,2.97
2022-11-14T06:50:22.714Z,2.87
2022-11-14T06:53:08.078Z,2.90
2022-11-14T06:55:58.768Z,4.50
2022-11-14T06:58:47.386Z,3.00
2022-11-14T07:01:32.913Z,3.23
2022-11-14T07:04:18.587Z,3.20
2022-11-14T07:07:03.625Z,3.40
2022-11-14T07:09:48.891Z,3.07
2022-11-14T07:12:34.224Z,3.40
2022-11-14T07:15:19.473Z,3.33
2022-11-14T07:18:05.296Z,3.20
2022-11-14T07:20:50.326Z,2.57
2022-11-14T07:23:36.705Z,3.40
2022-11-14T07:26:22.088Z,3.50
2022-11-14T07:29:07.312Z,3.37
2022-11-14T07:31:52.542Z,3.30
2022-11-14T07:34:37.828Z,2.80
2022-11-14T07:37:23.201Z,2.90
2022-11-14T07:40:09.040Z,3.00
2022-11-14T07:43:02.174Z,2.80
2022-11-14T07:45:47.541Z,2.67
2022-11-14T07:48:33.971Z,2.80
2022-11-14T07:51:20.768Z,3.53
2022-11-14T07:54:06.409Z,3.00
2022-11-14T07:56:51.874Z,2.60
2022-11-14T07:59:37.152Z,2.47
2022-11-14T08:02:22.532Z,2.83
2022-11-14T08:05:07.998Z,2.40
2022-11-14T08:07:53.316Z,2.23
2022-11-14T08:10:38.812Z,2.10
2022-11-14T08:13:32.017Z,2.20
2022-11-14T08:16:17.732Z,2.30
2022-11-14T08:19:03.095Z,2.37
2022-11-14T08:21:48.304Z,2.37
2022-11-14T08:24:33.766Z,2.63
2022-11-14T08:27:19.128Z,2.40
2022-11-14T08:30:04.809Z,2.50
2022-11-14T08:32:50.162Z,2.17
2022-11-14T08:35:35.267Z,2.23
2022-11-14T08:38:20.559Z,2.00
2022-11-14T08:41:05.926Z,1.87
2022-11-14T08:43:51.284Z,2.20
2022-11-14T08:46:36.583Z,2.10
2022-11-14T08:49:21.857Z,2.50
2022-11-14T08:52:09.272Z,2.83
2022-11-14T08:54:56.627Z,2.10
2022-11-14T08:57:46.601Z,2.33
2022-11-14T09:00:34.373Z,2.53
2022-11-14T09:03:19.871Z,2.60
2022-11-14T09:06:05.217Z,2.93
2022-11-14T09:08:50.510Z,3.23
2022-11-14T09:11:35.840Z,5.40
2022-11-14T09:14:21.206Z,2.87
2022-11-14T09:17:06.573Z,3.30
2022-11-14T09:19:51.762Z,3.57
2022-11-14T09:22:37.153Z,2.53
2022-11-14T09:25:22.847Z,4.27
2022-11-14T09:28:09.331Z,2.40
2022-11-14T09:31:03.679Z,3.03
2022-11-14T09:33:49.050Z,2.33
2022-11-14T09:36:34.493Z,3.03
2022-11-14T09:39:19.835Z,3.20
2022-11-14T09:42:33.061Z,2.40
2022-11-14T09:45:18.513Z,2.13
2022-11-14T09:48:14.614Z,2.23
2022-11-14T09:51:02.946Z,2.27
2022-11-14T09:54:20.573Z,2.10
2022-11-14T09:57:15.714Z,2.27
2022-11-14T10:00:01.869Z,2.43
2022-11-14T10:03:21.920Z,2.03
2022-11-14T10:06:15.864Z,1.85
2022-11-14T10:09:39.376Z,2.20
2022-11-14T10:12:32.413Z,1.55
2022-11-14T10:15:40.553Z,1.83
2022-11-14T10:19:15.064Z,1.70
2022-11-14T10:22:12.325Z,1.83
2022-11-14T10:25:30.017Z,1.58
2022-11-14T10:28:32.777Z,1.52
2022-11-14T10:32:08.608Z,1.50
2022-11-14T10:35:04.132Z,1.58
2022-11-14T10:38:18.103Z,2.58
2022-11-14T10:41:06.588Z,1.40
2022-11-14T10:43:52.887Z,1.27
2022-11-14T10:46:44.277Z,1.02
2022-11-14T10:49:32.615Z,1.00
2022-11-14T10:52:21.521Z,1.00
2022-11-14T10:55:18.225Z,0.80
2022-11-14T10:58:10.606Z,1.40
2022-11-14T11:00:55.719Z,0.90
2022-11-14T11:03:45.505Z,1.00
2022-11-14T11:06:31.408Z,1.25
2022-11-14T11:09:45.061Z,1.00
2022-11-14T11:12:37.093Z,0.80
2022-11-14T11:15:24.812Z,0.93
2022-11-14T11:18:35.432Z,0.90
2022-11-14T11:21:23.355Z,0.80
2022-11-14T11:24:09.696Z,1.13
2022-11-14T11:27:25.806Z,0.80
2022-11-14T11:30:23.339Z,0.70
2022-11-14T11:33:17.651Z,0.95
2022-11-14T11:36:07.399Z,0.73
2022-11-14T11:38:52.369Z,0.80
2022-11-14T11:44:48.868Z,1.10
2022-11-14T11:47:36.884Z,0.90
2022-11-14T11:50:24.238Z,0.80
2022-11-14T11:53:32.211Z,1.05
2022-11-14T11:56:30.285Z,1.20
2022-11-14T11:59:33.514Z,0.80
2022-11-14T12:02:25.990Z,0.90
2022-11-14T12:05:41.958Z,0.73
2022-11-14T12:08:41.341Z,0.90
2022-11-14T12:11:27.998Z,1.27
2022-11-14T12:14:47.158Z,1.42
2022-11-14T12:18:00.354Z,1.35
2022-11-14T12:20:48.640Z,1.20
2022-11-14T12:23:46.458Z,1.40
2022-11-14T12:26:48.454Z,1.13
2022-11-14T12:29:55.565Z,1.48
2022-11-14T12:32:53.781Z,2.00
2022-11-14T12:35:51.274Z,2.40
2022-11-14T12:38:47.417Z,3.45
2022-11-14T12:41:38.550Z,3.47
2022-11-14T12:44:27.074Z,3.67
2022-11-14T12:47:15.719Z,4.50
2022-11-14T12:50:02.954Z,5.07
2022-11-14T12:52:54.240Z,6.43
2022-11-14T12:55:45.684Z,7.18
2022-11-14T12:58:55.789Z,6.40
2022-11-14T13:01:53.330Z,5.32
2022-11-14T13:04:59.769Z,4.93
2022-11-14T13:08:03.865Z,4.88
2022-11-14T13:10:49.257Z,4.90
2022-11-14T13:14:19.547Z,4.10
2022-11-14T13:17:29.845Z,4.10
2022-11-14T13:20:50.967Z,5.07
2022-11-14T13:23:42.332Z,4.63
2022-11-14T13:26:27.526Z,3.80
2022-11-14T13:29:41.590Z,3.58
2022-11-14T13:32:56.119Z,2.55
2022-11-14T13:35:49.210Z,2.75
2022-11-14T13:38:53.064Z,2.60
2022-11-14T13:41:48.246Z,2.65
2022-11-14T13:45:01.193Z,2.30
2022-11-14T13:48:03.118Z,2.45
2022-11-14T13:50:55.252Z,2.50
2022-11-14T13:53:41.814Z,2.40
2022-11-14T13:56:42.905Z,2.40
2022-11-14T13:59:48.421Z,2.17
2022-11-14T14:02:43.025Z,2.47
2022-11-14T14:05:34.514Z,2.30
2022-11-14T14:09:08.102Z,2.30
2022-11-14T14:12:11.609Z,2.13
2022-11-14T14:15:11.661Z,2.30
2022-11-14T14:18:27.046Z,2.60
2022-11-14T14:21:24.948Z,2.40
2022-11-14T14:24:28.374Z,2.77
2022-11-14T14:27:38.186Z,2.60
2022-11-14T14:30:23.399Z,2.40
2022-11-14T14:33:08.742Z,2.53
2022-11-14T14:35:54.487Z,2.40
2022-11-14T14:38:40.143Z,2.27
2022-11-14T14:41:31.870Z,2.60
2022-11-14T14:44:34.532Z,2.80
2022-11-14T14:47:32.901Z,2.80
2022-11-14T14:50:22.689Z,2.60
2022-11-14T14:53:23.118Z,2.63
2022-11-14T14:56:22.188Z,2.07
2022-11-14T14:59:25.134Z,2.30
2022-11-14T15:02:17.021Z,2.33
2022-11-14T15:05:03.873Z,2.00
2022-11-14T15:07:51.788Z,2.40
2022-11-14T15:10:37.486Z,2.73
2022-11-14T15:13:24.015Z,2.70
2022-11-14T15:16:10.782Z,2.30
2022-11-14T15:18:58.105Z,2.37
2022-11-14T15:21:44.000Z,2.70
2022-11-14T15:24:30.131Z,1.97
2022-11-14T15:27:20.823Z,2.30
2022-11-14T15:30:19.266Z,2.60
2022-11-14T15:33:06.508Z,2.63
2022-11-14T15:36:17.950Z,3.00
2022-11-14T15:39:22.773Z,2.87
2022-11-14T15:42:29.561Z,6.80
2022-11-14T15:45:26.801Z,2.90
2022-11-14T15:48:16.406Z,2.20
2022-11-14T15:51:01.574Z,2.60
2022-11-14T15:53:49.568Z,2.27
2022-11-14T15:56:35.522Z,2.60
2022-11-14T15:59:21.031Z,2.73
2022-11-14T16:02:25.597Z,2.60
2022-11-14T16:05:16.122Z,2.90
2022-11-14T16:08:01.374Z,2.70
2022-11-14T16:10:46.468Z,2.47
2022-11-14T16:13:33.027Z,2.60
2022-11-14T16:16:18.136Z,2.87
2022-11-14T16:19:04.727Z,2.77
2022-11-14T16:21:50.696Z,2.57
2022-11-14T16:24:36.078Z,2.33
2022-11-14T16:27:21.348Z,2.90
2022-11-14T16:30:07.392Z,3.23
2022-11-14T16:32:53.024Z,2.70
2022-11-14T16:35:38.480Z,2.97
2022-11-14T16:38:23.594Z,2.97
2022-11-14T16:41:09.497Z,3.33
2022-11-14T16:43:55.938Z,2.87
2022-11-14T16:46:40.905Z,3.00
2022-11-14T16:49:26.399Z,2.27
2022-11-14T16:52:13.002Z,2.57
2022-11-14T16:54:58.491Z,3.03
2022-11-14T16:57:43.522Z,2.93
2022-11-14T17:00:28.752Z,3.30
2022-11-14T17:03:14.593Z,3.33
2022-11-14T17:06:00.038Z,3.07
2022-11-14T17:08:45.501Z,2.93
2022-11-14T17:11:30.873Z,4.00
2022-11-14T17:14:16.247Z,3.53
2022-11-14T17:17:01.890Z,4.33
2022-11-14T17:19:47.118Z,4.03
2022-11-14T17:22:32.640Z,4.20
2022-11-14T17:25:18.571Z,4.27
2022-11-14T17:28:04.580Z,3.43
2022-11-14T17:30:50.628Z,3.60
2022-11-14T17:33:37.434Z,4.53
2022-11-14T17:36:24.309Z,5.60
2022-11-14T17:39:09.880Z,4.63
2022-11-14T17:41:55.201Z,4.70
2022-11-14T17:44:40.605Z,5.70
2022-11-14T17:47:25.866Z,5.07
2022-11-14T17:50:11.127Z,4.60
2022-11-14T17:52:56.607Z,4.60
2022-11-14T17:55:41.821Z,5.23
2022-11-14T17:58:28.929Z,6.30
2022-11-14T18:01:18.580Z,4.93
2022-11-14T18:04:06.459Z,5.53
2022-11-14T18:06:53.311Z,6.13
2022-11-14T18:09:39.030Z,6.43
2022-11-14T18:12:24.268Z,6.70
2022-11-14T18:15:09.921Z,6.23
2022-11-14T18:17:55.051Z,6.27
2022-11-14T18:20:40.293Z,5.40
2022-11-14T18:23:25.899Z,4.97
2022-11-14T18:26:13.036Z,5.27
2022-11-14T18:29:01.205Z,5.70
2022-11-14T18:31:46.366Z,6.27
2022-11-14T18:34:31.736Z,5.47
2022-11-14T18:37:17.941Z,6.13
2022-11-14T18:40:03.504Z,5.60
2022-11-14T18:42:49.440Z,6.20
2022-11-14T18:45:36.658Z,5.93
2022-11-14T18:48:22.609Z,5.50
2022-11-14T18:51:12.218Z,5.53
2022-11-14T18:53:59.328Z,8.17
2022-11-14T18:56:45.146Z,26.20
2022-11-14T18:59:30.416Z,23.40
2022-11-14T19:02:15.793Z,7.13
2022-11-14T19:05:01.054Z,6.47
2022-11-14T19:07:46.374Z,7.90
2022-11-14T19:10:31.897Z,7.40
2022-11-14T19:13:17.177Z,7.10
2022-11-14T19:16:05.534Z,6.30
2022-11-14T19:18:51.859Z,6.53
2022-11-14T19:21:37.873Z,5.60
2022-11-14T19:24:23.374Z,5.67
2022-11-14T19:27:11.985Z,5.63
2022-11-14T19:29:57.126Z,6.17
2022-11-14T19:32:42.599Z,7.87
2022-11-14T19:35:27.887Z,8.97
2022-11-14T19:38:13.733Z,7.93
2022-11-14T19:41:05.351Z,8.17
2022-11-14T19:43:51.551Z,9.80
2022-11-14T19:46:38.695Z,8.73
2022-11-14T19:49:25.949Z,8.07
2022-11-14T19:52:11.775Z,7.73
2022-11-14T19:54:57.424Z,8.03
2022-11-14T19:57:42.881Z,8.43
2022-11-14T20:00:29.415Z,7.73
2022-11-14T20:03:15.058Z,6.60
2022-11-14T20:06:00.914Z,6.40
2022-11-14T20:08:46.130Z,11.70
2022-11-14T20:11:31.909Z,8.10
2022-11-14T20:14:18.645Z,6.43
2022-11-14T20:17:03.767Z,7.23
2022-11-14T20:19:50.867Z,7.33
2022-11-14T20:22:37.726Z,6.97
2022-11-14T20:25:23.472Z,6.63
2022-11-14T20:28:09.292Z,6.20
2022-11-14T20:30:54.709Z,6.83
2022-11-14T20:33:42.115Z,6.03
2022-11-14T20:36:38.974Z,6.63
2022-11-14T20:39:32.773Z,6.50
2022-11-14T20:42:17.990Z,5.77
2022-11-14T20:45:03.721Z,6.60
2022-11-14T20:47:48.742Z,6.10
2022-11-14T20:50:34.237Z,6.40
2022-11-14T20:53:19.984Z,6.57
2022-11-14T20:56:05.839Z,6.70
2022-11-14T20:58:52.468Z,8.60
2022-11-14T21:01:43.537Z,6.67
2022-11-14T21:04:29.206Z,5.47
2022-11-14T21:07:14.646Z,6.03
2022-11-14T21:10:18.738Z,5.63
2022-11-14T21:13:26.516Z,6.70
2022-11-14T21:16:14.642Z,7.37
2022-11-14T21:19:01.050Z,6.57
2022-11-14T21:21:46.345Z,7.10
2022-11-14T21:24:34.492Z,7.23
2022-11-14T21:27:22.714Z,7.20
2022-11-14T21:30:09.100Z,7.20
2022-11-14T21:32:54.712Z,6.97
2022-11-14T21:35:40.044Z,6.87
2022-11-14T21:38:25.381Z,5.87
2022-11-14T21:41:16.699Z,7.23
2022-11-14T21:44:03.595Z,7.03
2022-11-14T21:46:49.974Z,7.63
2022-11-14T21:49:35.284Z,7.07
2022-11-14T21:52:20.540Z,6.90
2022-11-14T21:55:06.554Z,6.90
2022-11-14T21:57:54.720Z,6.07
2022-11-14T22:00:41.470Z,6.77
2022-11-14T22:03:45.393Z,6.77
2022-11-14T22:06:30.357Z,7.13
2022-11-14T22:09:15.957Z,6.67
2022-11-14T22:12:01.637Z,7.03
2022-11-14T22:14:46.786Z,7.10
2022-11-14T22:17:32.211Z,6.70
2022-11-14T22:20:17.598Z,6.70
2022-11-14T22:23:02.925Z,7.03
2022-11-14T22:25:58.944Z,6.87
2022-11-14T22:28:44.400Z,7.43
2022-11-14T22:31:29.696Z,7.13
2022-11-14T22:34:14.989Z,6.87
2022-11-14T22:37:00.218Z,7.20
2022-11-14T22:39:45.417Z,6.50
2022-11-14T22:42:30.805Z,6.63
2022-11-14T22:45:16.035Z,6.40
2022-11-14T22:48:01.513Z,6.77
2022-11-14T22:50:46.956Z,5.90
2022-11-14T22:53:34.653Z,7.00
2022-11-14T22:56:23.868Z,6.50
2022-11-14T22:59:09.184Z,5.73
2022-11-14T23:01:55.458Z,6.17
2022-11-14T23:04:40.940Z,6.80
2022-11-14T23:07:26.943Z,6.40
2022-11-14T23:10:12.108Z,6.10
2022-11-14T23:12:57.444Z,6.23
2022-11-14T23:15:47.136Z,6.87
2022-11-14T23:18:32.254Z,5.67
2022-11-14T23:21:30.408Z,6.13
2022-11-14T23:24:15.827Z,6.07
2022-11-14T23:27:00.941Z,5.97
2022-11-14T23:29:46.696Z,5.63
2022-11-14T23:32:32.136Z,5.53
2022-11-14T23:35:17.466Z,7.87
2022-11-14T23:38:04.970Z,6.43
2022-11-14T23:40:54.634Z,7.20
2022-11-14T23:43:40.304Z,5.70
2022-11-14T23:46:26.779Z,6.17
2022-11-14T23:49:11.956Z,5.70
2022-11-14T23:51:57.239Z,5.73
2022-11-14T23:54:42.644Z,5.37
2022-11-14T23:57:28.036Z,5.40
